createdAt,value
2022-11-05T00:02:17.602Z,6.72
2022-11-05T00:05:38.242Z,6.68
2022-11-05T00:09:00.231Z,6.67
2022-11-05T00:12:25.338Z,6.64
2022-11-05T00:15:46.132Z,6.61
2022-11-05T00:19:06.695Z,6.61
2022-11-05T00:22:27.259Z,6.59
2022-11-05T00:25:30.509Z,6.56
2022-11-05T00:28:33.368Z,6.60
2022-11-05T00:31:35.309Z,6.60
2022-11-05T00:34:38.168Z,6.61
2022-11-05T00:37:42.325Z,6.61
2022-11-05T00:40:46.536Z,6.62
2022-11-05T00:44:07.031Z,6.63
2022-11-05T00:47:27.170Z,6.63
2022-11-05T00:50:29.339Z,6.63
2022-11-05T00:53:31.133Z,6.64
2022-11-05T00:56:32.969Z,6.65
2022-11-05T00:59:34.781Z,6.69
2022-11-05T01:02:36.780Z,6.71
2022-11-05T01:05:44.964Z,6.71
2022-11-05T01:08:47.203Z,6.71
2022-11-05T01:11:49.457Z,6.72
2022-11-05T01:14:51.379Z,6.74
2022-11-05T01:17:53.327Z,6.70
2022-11-05T01:20:55.186Z,6.71
2022-11-05T01:23:57.219Z,6.70
2022-11-05T01:26:59.030Z,6.69
2022-11-05T01:30:00.994Z,6.71
2022-11-05T01:33:03.594Z,6.72
2022-11-05T01:36:05.686Z,6.75
2022-11-05T01:39:07.512Z,6.76
2022-11-05T01:42:19.505Z,6.77
2022-11-05T01:45:25.382Z,6.76
2022-11-05T01:48:32.533Z,6.75
2022-11-05T01:51:34.883Z,6.76
2022-11-05T01:54:36.787Z,6.75
2022-11-05T01:57:38.794Z,6.77
2022-11-05T02:00:42.353Z,6.80
2022-11-05T02:03:46.446Z,6.83
2022-11-05T02:06:48.295Z,6.87
2022-11-05T02:10:00.171Z,6.87
2022-11-05T02:13:03.763Z,6.87
2022-11-05T02:16:23.819Z,6.88
2022-11-05T02:19:44.110Z,6.90
2022-11-05T02:23:07.278Z,6.93
2022-11-05T02:26:33.728Z,6.93
2022-11-05T02:29:44.694Z,6.90
2022-11-05T02:33:18.606Z,6.87
2022-11-05T02:36:46.614Z,6.87
2022-11-05T02:40:01.102Z,6.88
2022-11-05T02:43:24.093Z,6.91
2022-11-05T02:46:32.299Z,6.91
2022-11-05T02:50:01.831Z,6.94
2022-11-05T02:53:12.704Z,6.94
2022-11-05T02:56:22.263Z,6.95
2022-11-05T02:59:24.087Z,6.95
2022-11-05T03:02:26.040Z,6.98
2022-11-05T03:05:40.926Z,7.02
2022-11-05T03:09:00.698Z,7.04
2022-11-05T03:12:32.963Z,7.03
2022-11-05T03:15:46.693Z,7.05
2022-11-05T03:19:02.490Z,7.06
2022-11-05T03:22:23.727Z,7.06
2022-11-05T03:25:29.241Z,7.06
2022-11-05T03:28:35.698Z,7.00
2022-11-05T03:31:41.102Z,6.98
2022-11-05T03:34:47.751Z,6.91
2022-11-05T03:37:54.571Z,6.91
2022-11-05T03:41:00.184Z,6.86
2022-11-05T03:44:06.671Z,6.81
2022-11-05T03:47:17.114Z,6.80
2022-11-05T03:50:28.966Z,6.80
2022-11-05T03:53:37.095Z,6.81
2022-11-05T03:56:58.782Z,6.81
2022-11-05T04:00:00.677Z,6.83
2022-11-05T04:03:02.705Z,6.82
2022-11-05T04:06:25.422Z,6.83
2022-11-05T04:09:46.071Z,6.77
2022-11-05T04:13:06.273Z,6.65
2022-11-05T04:16:27.071Z,6.56
2022-11-05T04:19:47.258Z,6.51
2022-11-05T04:23:08.074Z,6.52
2022-11-05T04:26:10.103Z,6.55
2022-11-05T04:29:31.149Z,6.56
2022-11-05T04:32:33.829Z,6.59
2022-11-05T04:35:38.274Z,6.56
2022-11-05T04:38:41.086Z,6.55
2022-11-05T04:41:43.059Z,6.53
2022-11-05T04:44:44.989Z,6.50
2022-11-05T04:47:46.835Z,6.48
2022-11-05T04:50:48.663Z,6.39
2022-11-05T04:53:50.525Z,6.30
2022-11-05T04:56:52.401Z,6.18
2022-11-05T04:59:55.215Z,6.14
2022-11-05T05:02:57.102Z,6.06
2022-11-05T05:06:03.808Z,6.03
2022-11-05T05:09:06.077Z,5.96
2022-11-05T05:12:08.160Z,5.88
2022-11-05T05:15:10.061Z,5.79
2022-11-05T05:18:11.863Z,5.76
2022-11-05T05:21:33.974Z,5.63
2022-11-05T05:24:35.759Z,5.56
2022-11-05T05:27:37.572Z,5.58
2022-11-05T05:30:39.420Z,5.59
2022-11-05T05:33:41.302Z,5.57
2022-11-05T05:36:43.193Z,5.48
2022-11-05T05:39:48.799Z,5.36
2022-11-05T05:42:55.654Z,5.19
2022-11-05T05:45:57.837Z,5.15
2022-11-05T05:48:59.859Z,5.15
2022-11-05T05:52:01.964Z,5.09
2022-11-05T05:55:04.002Z,4.84
2022-11-05T05:58:05.855Z,4.86
2022-11-05T06:01:17.211Z,4.85
2022-11-05T06:04:20.815Z,4.83
2022-11-05T06:07:23.146Z,4.82
2022-11-05T06:10:25.681Z,4.73
2022-11-05T06:13:28.116Z,4.68
2022-11-05T06:16:35.819Z,4.52
2022-11-05T06:19:37.621Z,4.40
2022-11-05T06:22:39.766Z,4.31
2022-11-05T06:25:41.691Z,4.19
2022-11-05T06:28:43.883Z,4.17
2022-11-05T06:31:45.701Z,4.12
2022-11-05T06:34:47.584Z,4.09
2022-11-05T06:37:49.467Z,4.10
2022-11-05T06:40:51.297Z,4.02
2022-11-05T06:43:53.163Z,4.06
2022-11-05T06:46:54.998Z,4.06
2022-11-05T06:49:57.527Z,4.04
2022-11-05T06:53:01.362Z,4.06
2022-11-05T06:56:07.680Z,4.05
2022-11-05T06:59:09.450Z,4.06
2022-11-05T07:02:13.744Z,4.06
2022-11-05T07:05:16.660Z,3.97
2022-11-05T07:08:18.514Z,4.00
2022-11-05T07:11:20.516Z,4.10
2022-11-05T07:14:22.445Z,4.08
2022-11-05T07:17:24.243Z,4.09
2022-11-05T07:20:32.324Z,4.19
2022-11-05T07:23:35.590Z,4.27
2022-11-05T07:26:37.418Z,4.33
2022-11-05T07:29:39.646Z,4.31
2022-11-05T07:32:41.584Z,4.44
2022-11-05T07:35:43.432Z,4.42
2022-11-05T07:38:45.270Z,4.49
2022-11-05T07:41:47.136Z,4.46
2022-11-05T07:44:49.000Z,4.51
2022-11-05T07:47:52.932Z,4.57
2022-11-05T07:50:54.824Z,4.74
2022-11-05T07:53:56.701Z,4.66
2022-11-05T07:56:58.636Z,4.77
2022-11-05T08:00:00.578Z,4.85
2022-11-05T08:03:07.686Z,4.88
2022-11-05T08:06:09.867Z,4.99
2022-11-05T08:09:11.724Z,5.04
2022-11-05T08:12:13.576Z,5.12
2022-11-05T08:15:15.676Z,5.09
2022-11-05T08:18:18.163Z,5.16
2022-11-05T08:21:20.036Z,5.19
2022-11-05T08:24:21.897Z,5.16
2022-11-05T08:27:23.851Z,5.16
2022-11-05T08:30:26.271Z,5.11
2022-11-05T08:33:31.363Z,5.15
2022-11-05T08:36:35.188Z,5.19
2022-11-05T08:39:37.007Z,5.22
2022-11-05T08:42:38.824Z,5.35
2022-11-05T08:45:41.508Z,5.39
2022-11-05T08:48:44.130Z,5.49
2022-11-05T08:51:46.070Z,5.53
2022-11-05T08:54:47.901Z,5.38
2022-11-05T08:57:59.549Z,5.42
2022-11-05T09:01:05.397Z,5.32
2022-11-05T09:04:07.795Z,5.39
2022-11-05T09:07:09.665Z,5.36
2022-11-05T09:10:11.516Z,5.37
2022-11-05T09:13:18.727Z,5.41
2022-11-05T09:16:26.208Z,5.38
2022-11-05T09:19:28.003Z,5.35
2022-11-05T09:22:30.008Z,5.38
2022-11-05T09:25:32.832Z,5.39
2022-11-05T09:28:34.747Z,5.39
2022-11-05T09:31:36.583Z,5.44
2022-11-05T09:34:38.489Z,5.36
2022-11-05T09:37:40.418Z,5.40
2022-11-05T09:41:01.803Z,5.46
2022-11-05T09:44:13.714Z,5.52
2022-11-05T09:47:26.158Z,5.58
2022-11-05T09:50:36.627Z,5.57
2022-11-05T09:53:41.014Z,5.61
2022-11-05T09:56:43.348Z,5.61
2022-11-05T09:59:48.826Z,5.53
2022-11-05T10:02:57.298Z,5.45
2022-11-05T10:06:07.358Z,5.38
2022-11-05T10:09:25.452Z,5.36
2022-11-05T10:16:18.650Z,5.38
2022-11-05T10:19:36.845Z,5.48
2022-11-05T10:22:41.971Z,5.56
2022-11-05T10:25:51.665Z,5.49
2022-11-05T10:28:55.038Z,5.60
2022-11-05T10:31:58.588Z,5.60
2022-11-05T10:35:04.256Z,5.49
2022-11-05T10:38:06.120Z,5.50
2022-11-05T10:41:40.365Z,5.40
2022-11-05T10:45:02.067Z,5.40
2022-11-05T10:48:27.586Z,5.37
2022-11-05T10:51:31.900Z,5.36
2022-11-05T10:54:35.707Z,5.39
2022-11-05T10:57:40.108Z,5.32
2022-11-05T11:00:59.938Z,5.28
2022-11-05T11:04:23.038Z,5.31
2022-11-05T11:07:28.922Z,5.26
2022-11-05T11:10:37.449Z,5.31
2022-11-05T11:14:10.157Z,5.25
2022-11-05T11:17:27.872Z,5.25
2022-11-05T11:20:33.211Z,5.17
2022-11-05T11:23:41.003Z,5.19
2022-11-05T11:26:42.939Z,5.17
2022-11-05T11:29:52.594Z,5.12
2022-11-05T11:33:03.874Z,5.08
2022-11-05T11:36:06.843Z,5.14
2022-11-05T11:39:14.695Z,5.14
2022-11-05T11:42:26.052Z,5.11
2022-11-05T11:45:43.885Z,5.13
2022-11-05T11:48:50.613Z,5.03
2022-11-05T11:51:59.987Z,5.00
2022-11-05T11:55:23.059Z,4.96
2022-11-05T11:58:38.535Z,4.80
2022-11-05T12:02:02.065Z,4.78
2022-11-05T12:05:16.406Z,4.74
2022-11-05T12:08:41.691Z,4.70
2022-11-05T12:12:05.191Z,4.70
2022-11-05T12:15:20.078Z,4.74
2022-11-05T12:18:33.754Z,4.73
2022-11-05T12:22:30.149Z,4.72
2022-11-05T12:26:18.023Z,4.62
2022-11-05T12:29:53.329Z,4.57
2022-11-05T12:33:36.700Z,4.53
2022-11-05T12:37:20.128Z,4.53
2022-11-05T12:40:34.055Z,4.58
2022-11-05T12:43:41.444Z,4.47
2022-11-05T12:47:09.993Z,4.42
2022-11-05T12:50:24.365Z,4.41
2022-11-05T12:54:05.756Z,4.41
2022-11-05T12:57:11.726Z,4.43
2022-11-05T13:00:13.797Z,4.45
2022-11-05T13:03:15.589Z,4.43
2022-11-05T13:06:22.124Z,4.44
2022-11-05T13:09:54.437Z,4.50
2022-11-05T13:13:07.893Z,4.47
2022-11-05T13:16:22.710Z,4.42
2022-11-05T13:19:47.508Z,4.30
2022-11-05T13:22:55.798Z,4.23
2022-11-05T13:26:15.599Z,4.27
2022-11-05T13:29:32.087Z,4.24
2022-11-05T13:32:45.329Z,4.20
2022-11-05T13:35:47.158Z,4.27
2022-11-05T13:39:10.412Z,4.27
2022-11-05T13:42:16.186Z,4.22
2022-11-05T13:45:50.329Z,4.21
2022-11-05T13:49:01.265Z,4.18
2022-11-05T13:52:27.112Z,4.13
2022-11-05T13:56:01.540Z,4.06
2022-11-05T13:59:43.045Z,3.95
2022-11-05T14:02:51.469Z,3.89
2022-11-05T14:05:59.311Z,3.84
2022-11-05T14:09:04.660Z,3.76
2022-11-05T14:12:16.863Z,3.73
2022-11-05T14:15:23.616Z,3.70
2022-11-05T14:18:25.388Z,3.69
2022-11-05T14:21:27.263Z,3.65
2022-11-05T14:24:43.143Z,3.57
2022-11-05T14:27:47.978Z,3.57
2022-11-05T14:30:49.979Z,3.53
2022-11-05T14:34:03.959Z,3.56
2022-11-05T14:37:11.831Z,3.57
2022-11-05T14:40:26.174Z,3.54
2022-11-05T14:43:31.779Z,3.48
2022-11-05T14:46:45.273Z,3.35
2022-11-05T14:50:11.669Z,3.28
2022-11-05T14:53:36.666Z,3.17
2022-11-05T14:56:56.549Z,3.00
2022-11-05T15:00:00.944Z,2.89
2022-11-05T15:03:27.854Z,2.82
2022-11-05T15:06:32.728Z,2.80
2022-11-05T15:09:42.625Z,2.61
2022-11-05T15:13:03.941Z,2.55
2022-11-05T15:16:07.145Z,2.53
2022-11-05T15:19:25.097Z,2.49
2022-11-05T15:22:35.000Z,2.45
2022-11-05T15:25:50.400Z,2.35
2022-11-05T15:28:56.118Z,2.26
2022-11-05T15:31:58.672Z,2.19
2022-11-05T15:35:00.717Z,2.23
2022-11-05T15:38:02.957Z,2.27
2022-11-05T15:41:27.087Z,2.20
2022-11-05T15:44:38.675Z,2.27
2022-11-05T15:47:46.384Z,2.27
2022-11-05T15:50:48.277Z,2.36
2022-11-05T15:57:27.215Z,2.31
2022-11-05T16:00:33.286Z,2.30
2022-11-05T16:03:38.713Z,2.35
2022-11-05T16:06:42.865Z,2.38
2022-11-05T16:10:01.879Z,2.45
2022-11-05T16:13:23.161Z,2.49
2022-11-05T16:16:33.262Z,2.46
2022-11-05T16:19:40.492Z,2.44
2022-11-05T16:22:48.368Z,2.40
2022-11-05T16:25:51.984Z,2.36
2022-11-05T16:28:54.383Z,2.38
2022-11-05T16:31:58.788Z,2.30
2022-11-05T16:35:03.631Z,2.27
2022-11-05T16:38:06.097Z,2.33
2022-11-05T16:41:20.100Z,2.38
2022-11-05T16:44:21.992Z,2.40
2022-11-05T16:47:26.145Z,2.39
2022-11-05T16:50:31.976Z,2.30
2022-11-05T16:53:33.991Z,2.34
2022-11-05T16:56:36.776Z,2.36
2022-11-05T16:59:38.693Z,2.38
2022-11-05T17:02:43.855Z,2.41
2022-11-05T17:05:46.519Z,2.41
2022-11-05T17:08:48.677Z,2.37
2022-11-05T17:11:50.586Z,2.38
2022-11-05T17:14:52.425Z,2.38
2022-11-05T17:17:55.504Z,2.33
2022-11-05T17:20:57.449Z,2.28
2022-11-05T17:23:59.231Z,2.31
2022-11-05T17:27:01.142Z,2.17
2022-11-05T17:30:03.485Z,2.17
2022-11-05T17:33:05.521Z,2.13
2022-11-05T17:36:09.646Z,2.09
2022-11-05T17:39:11.643Z,2.04
2022-11-05T17:42:13.545Z,2.00
2022-11-05T17:45:15.892Z,2.03
2022-11-05T17:48:19.171Z,2.05
2022-11-05T17:51:21.253Z,2.05
2022-11-05T17:54:23.140Z,2.07
2022-11-05T17:57:25.187Z,2.02
2022-11-05T18:00:29.049Z,1.99
2022-11-05T18:03:31.291Z,1.93
2022-11-05T18:06:33.210Z,1.98
2022-11-05T18:09:34.993Z,1.92
2022-11-05T18:12:37.346Z,1.92
2022-11-05T18:15:41.487Z,1.97
2022-11-05T18:18:43.512Z,1.97
2022-11-05T18:21:46.603Z,2.00
2022-11-05T18:24:48.531Z,1.98
2022-11-05T18:27:50.499Z,2.00
2022-11-05T18:30:52.438Z,1.92
2022-11-05T18:33:59.097Z,1.91
2022-11-05T18:37:00.902Z,1.84
2022-11-05T18:40:02.812Z,1.79
2022-11-05T18:43:06.368Z,1.79
2022-11-05T18:46:08.796Z,1.81
2022-11-05T18:49:13.534Z,1.84
2022-11-05T18:52:15.465Z,1.86
2022-11-05T18:55:17.567Z,1.91
2022-11-05T18:58:19.528Z,1.88
2022-11-05T19:01:24.961Z,1.84
2022-11-05T19:04:27.158Z,1.85
2022-11-05T19:07:31.957Z,1.82
2022-11-05T19:10:34.006Z,1.72
2022-11-05T19:13:36.193Z,1.70
2022-11-05T19:16:38.399Z,1.76
2022-11-05T19:19:40.305Z,1.75
2022-11-05T19:22:42.218Z,1.82
2022-11-05T19:25:44.111Z,1.79
2022-11-05T19:28:46.004Z,1.73
2022-11-05T19:31:48.933Z,1.76
2022-11-05T19:34:50.702Z,1.74
2022-11-05T19:37:54.158Z,1.80
2022-11-05T19:40:55.982Z,1.84
2022-11-05T19:44:01.951Z,1.86
2022-11-05T19:47:05.962Z,1.81
2022-11-05T19:50:08.081Z,1.83
2022-11-05T19:53:10.841Z,1.83
2022-11-05T19:56:16.088Z,1.78
2022-11-05T19:59:18.041Z,1.79
2022-11-05T20:02:20.281Z,1.76
2022-11-05T20:05:22.325Z,1.83
2022-11-05T20:08:24.139Z,1.80
2022-11-05T20:11:26.310Z,1.76
2022-11-05T20:14:28.210Z,1.81
2022-11-05T20:17:30.668Z,1.84
2022-11-05T20:20:33.070Z,1.88
2022-11-05T20:23:36.182Z,1.92
2022-11-05T20:26:38.580Z,1.94
2022-11-05T20:29:40.463Z,2.00
2022-11-05T20:32:42.293Z,2.04
2022-11-05T20:35:44.135Z,2.01
2022-11-05T20:38:50.747Z,2.04
2022-11-05T20:41:53.477Z,2.05
2022-11-05T20:44:55.279Z,2.05
2022-11-05T20:47:57.102Z,2.09
2022-11-05T20:50:59.425Z,2.06
2022-11-05T20:54:01.975Z,2.10
2022-11-05T20:57:04.117Z,2.10
2022-11-05T21:00:07.287Z,2.11
2022-11-05T21:03:09.155Z,2.11
2022-11-05T21:06:12.205Z,2.14
2022-11-05T21:09:14.098Z,2.11
2022-11-05T21:12:15.986Z,2.16
2022-11-05T21:15:22.999Z,2.13
2022-11-05T21:18:32.417Z,2.13
2022-11-05T21:21:37.497Z,2.14
2022-11-05T21:24:43.364Z,2.12
2022-11-05T21:27:45.204Z,2.18
2022-11-05T21:30:49.160Z,2.21
2022-11-05T21:33:55.158Z,2.19
2022-11-05T21:36:58.732Z,2.12
2022-11-05T21:40:00.515Z,2.11
2022-11-05T21:43:02.594Z,2.04
2022-11-05T21:46:05.359Z,2.01
2022-11-05T21:49:07.615Z,2.03
2022-11-05T21:52:30.215Z,1.97
2022-11-05T21:55:50.764Z,1.85
2022-11-05T21:59:18.457Z,1.81
2022-11-05T22:02:22.947Z,1.72
2022-11-05T22:05:24.900Z,1.62
2022-11-05T22:08:27.345Z,1.54
2022-11-05T22:11:29.225Z,1.52
2022-11-05T22:14:31.125Z,1.54
2022-11-05T22:17:33.024Z,1.53
2022-11-05T22:20:39.140Z,1.47
2022-11-05T22:23:41.099Z,1.42
2022-11-05T22:26:43.812Z,1.45
2022-11-05T22:29:46.270Z,1.47
2022-11-05T22:32:48.143Z,1.41
2022-11-05T22:35:49.965Z,1.39
2022-11-05T22:38:52.150Z,1.46
2022-11-05T22:41:56.410Z,1.44
2022-11-05T22:44:59.030Z,1.50
2022-11-05T22:48:06.376Z,1.52
2022-11-05T22:51:11.738Z,1.58
2022-11-05T22:54:13.944Z,1.62
2022-11-05T22:57:15.858Z,1.62
2022-11-05T23:00:18.028Z,1.68
2022-11-05T23:03:20.902Z,1.70
2022-11-05T23:06:44.059Z,1.67
2022-11-05T23:10:04.592Z,1.71
2022-11-05T23:13:08.010Z,1.62
2022-11-05T23:16:28.757Z,1.54
2022-11-05T23:19:49.442Z,1.49
2022-11-05T23:23:10.091Z,1.55
2022-11-05T23:26:30.796Z,1.57
2022-11-05T23:29:32.828Z,1.55
2022-11-05T23:32:35.463Z,1.57
2022-11-05T23:35:56.097Z,1.54
2022-11-05T23:38:57.888Z,1.52
2022-11-05T23:42:18.606Z,1.52
2022-11-05T23:45:39.310Z,1.52
2022-11-05T23:48:41.174Z,1.49
2022-11-05T23:51:43.220Z,1.48
2022-11-05T23:54:45.033Z,1.46
2022-11-05T23:57:47.034Z,1.42
